AMS weather

Public forecast

Using degrees Celsius for public forecast. Weather courtesy of forecast.io.

Current aviation weather report (METAR) for Amsterdam Airport Schiphol

Retrieved 2020/08/12 23:25 UTC (6 minutes ago):

EHAM 122325Z 07004KT CAVOK 23/17 Q1011 NOSIG

Aviation forecast (TAF) for Amsterdam Airport Schiphol

Retrieved 2020/08/12 18:27 UTC (5 hours ago):

TAF TAF COR EHAM 121707Z 1218/1324 08007KT CAVOK BECMG 1302/1305 12006KT BECMG 1313/1316 VRB03KT PROB40 TEMPO 1314/1320 VRB10G20KT 4500 TSRAGR SCT050CB